APL Norway — A8NC4 — position and weather

sailwx.info

Track history (hours):
 
Tides and Currents Weather Stations Pressure Air Temp Water Temp Dewpoint Dewpoint Depression Visibility Wind Speed Wind Dir Waves Ship Positions

APL Norway

Last reported at 2018-Apr-26 13:56 UTC. Time now 2018-Apr-26 22:54 UTC.
Position N 27°11' W 079°47'.

Length 295 m; draft 12 m.

Type: Cargo ship. MMSI: 636013456.

Date/timePositionNaut miles runAvg speedWind from/ knotsBaromVisibWave heightAir tempDewpointWater temp
2018-Apr-26 13:56N 27°11' W 079°47'612.7
2018-Apr-26 13:30N 27°05' W 079°48'612.8
2018-Apr-26 13:00N 26°59' W 079°48'613.0
2018-Apr-26 12:30N 26°52' W 079°48'613.0
2018-Apr-26 12:00N 26°46' W 079°48'712.9
2018-Apr-26 11:30N 26°39' W 079°48'713.0
2018-Apr-26 10:58N 26°33' W 079°48'1213.0
2018-Apr-26 10:03N 26°21' W 079°48'1310.9
2018-Apr-26 08:53N 26°09' W 079°53'711.6
2018-Apr-26 08:15N 26°02' W 079°55'312.1
2018-Apr-26 08:00N 25°59' W 079°57'612.1
2018-Apr-26 07:30N 25°54' W 079°60'712.8
2018-Apr-26 07:00N 25°48' W 080°02'5 9.5
2018-Apr-26 06:30N 25°45' W 080°07'2 0.2
2018-Apr-25 20:29N 25°46' W 080°09'0 0.0
2018-Apr-25 19:59N 25°46' W 080°09'0 0.0
2018-Apr-25 19:29N 25°46' W 080°09'0 0.0
2018-Apr-25 18:59N 25°46' W 080°09'0 0.0
2018-Apr-25 18:29N 25°46' W 080°09'0 0.0
2018-Apr-25 17:59N 25°46' W 080°09'0 0.0
2018-Apr-25 17:20N 25°46' W 080°09'0 0.0
2018-Apr-25 16:50N 25°46' W 080°09'0 0.0
2018-Apr-25 16:20N 25°46' W 080°09'0 0.0
2018-Apr-25 15:53N 25°46' W 080°09'0 0.0
2018-Apr-25 15:23N 25°46' W 080°09'0 0.0
2018-Apr-25 14:53N 25°46' W 080°09'0 0.0
2018-Apr-25 14:20N 25°46' W 080°09'0 0.0
2018-Apr-25 13:53N 25°46' W 080°09'0 0.0
2018-Apr-25 13:23N 25°46' W 080°09'0 0.0
2018-Apr-25 12:56N 25°46' W 080°09'0 0.0
2018-Apr-25 12:26N 25°46' W 080°09'0 0.0
2018-Apr-25 11:59N 25°46' W 080°09'0 0.0
2018-Apr-25 11:30N 25°46' W 080°09'1 1.7
2018-Apr-25 11:01N 25°46' W 080°10'2 4.5
2018-Apr-25 10:30N 25°46' W 080°08'5 9.8
2018-Apr-25 10:00N 25°47' W 080°02'2 3.8
2018-Apr-25 09:30N 25°46' W 080°01'611.8
2018-Apr-25 09:00N 25°40' W 079°58'815.0
2018-Apr-25 08:30N 25°33' W 079°58'815.3
2018-Apr-25 08:00N 25°25' W 079°59'815.4
2018-Apr-25 07:30N 25°18' W 080°00'  
2018-Apr-21 19:54N 28°40' W 093°46'6317.0
2018-Apr-21 16:10N 29°21' W 094°42'210.3
2018-Apr-21 15:57N 29°21' W 094°44'7 9.1
2018-Apr-21 15:14N 29°25' W 094°50'310.0
2018-Apr-21 14:57N 29°28' W 094°51'510.5
2018-Apr-21 14:30N 29°32' W 094°54'510.1
2018-Apr-21 14:00N 29°36' W 094°57'2 4.2
2018-Apr-21 13:30N 29°37' W 094°59'1 2.5
2018-Apr-21 12:59N 29°37' W 095°01'0 0.0
2018-Apr-21 12:29N 29°37' W 095°01'0 0.0
2018-Apr-21 11:59N 29°37' W 095°01'0 0.0
2018-Apr-21 11:29N 29°37' W 095°01'0 0.0
2018-Apr-21 10:59N 29°37' W 095°01'0 0.0
2018-Apr-21 10:29N 29°37' W 095°01'0 0.0
2018-Apr-21 09:59N 29°37' W 095°01'0 0.0
2018-Apr-21 09:29N 29°37' W 095°01'0 0.0
2018-Apr-21 08:59N 29°37' W 095°01'0 0.0
2018-Apr-21 08:29N 29°37' W 095°01'0 0.0
2018-Apr-21 07:59N 29°37' W 095°01'0 0.0
2018-Apr-21 07:29N 29°37' W 095°01'0 0.0
2018-Apr-21 06:59N 29°37' W 095°01'0 0.0
2018-Apr-21 06:29N 29°37' W 095°01'0 0.0
2018-Apr-21 05:59N 29°37' W 095°01'0 0.0
2018-Apr-21 05:29N 29°37' W 095°01'0 0.0
2018-Apr-21 04:59N 29°37' W 095°01'0 0.0
2018-Apr-21 04:29N 29°37' W 095°01'0 0.0
2018-Apr-21 03:59N 29°37' W 095°01'0 0.0
2018-Apr-21 03:29N 29°37' W 095°01'0 0.0
2018-Apr-21 02:58N 29°37' W 095°01'0 0.0
2018-Apr-21 02:28N 29°37' W 095°01'0 0.0
2018-Apr-21 01:58N 29°37' W 095°01'0 0.0
2018-Apr-21 01:28N 29°37' W 095°01'0 0.0
2018-Apr-21 00:58N 29°37' W 095°01'0 0.0
2018-Apr-21 00:28N 29°37' W 095°01'0 0.0
2018-Apr-20 23:58N 29°37' W 095°01'0 0.0
2018-Apr-20 23:28N 29°37' W 095°01'0 0.0
2018-Apr-20 22:58N 29°37' W 095°01'0 0.0
2018-Apr-20 22:28N 29°37' W 095°01'0 0.0
2018-Apr-20 21:58N 29°37' W 095°01'0 0.0
2018-Apr-20 21:28N 29°37' W 095°01'0 0.0
2018-Apr-20 20:58N 29°37' W 095°01'0 0.0
2018-Apr-20 20:28N 29°37' W 095°01'0 0.0
2018-Apr-20 19:58N 29°37' W 095°01'0 0.0
2018-Apr-20 19:28N 29°37' W 095°01'0 0.0
2018-Apr-20 18:58N 29°37' W 095°01'0 0.0
2018-Apr-20 18:28N 29°37' W 095°01'0 0.0
2018-Apr-20 17:58N 29°37' W 095°01'0 0.0
2018-Apr-20 17:28N 29°37' W 095°01'0 0.0
2018-Apr-20 16:58N 29°37' W 095°01'0 0.0
2018-Apr-20 16:28N 29°37' W 095°01'0 0.0
2018-Apr-20 15:58N 29°37' W 095°01'0 0.0
2018-Apr-20 15:28N 29°37' W 095°01'0 0.0
2018-Apr-20 14:58N 29°37' W 095°01'0 0.0
2018-Apr-20 14:28N 29°37' W 095°01'0 0.0
2018-Apr-20 13:58N 29°37' W 095°01'0 0.0
2018-Apr-20 13:28N 29°37' W 095°01'0 0.0
2018-Apr-20 12:58N 29°37' W 095°01'0 0.0
2018-Apr-20 12:28N 29°37' W 095°01'0 0.0
2018-Apr-20 11:58N 29°37' W 095°01'0 0.0
2018-Apr-20 11:28N 29°37' W 095°01'0 0.0
2018-Apr-20 10:58N 29°37' W 095°01'0 0.0
2018-Apr-20 10:28N 29°37' W 095°01'0 0.0
2018-Apr-20 09:58N 29°37' W 095°01'0 0.0
2018-Apr-20 09:28N 29°37' W 095°01'0 0.0
2018-Apr-20 08:58N 29°37' W 095°01'0 0.0
2018-Apr-20 08:28N 29°37' W 095°01'0 0.0
2018-Apr-20 07:58N 29°37' W 095°01'0 0.0
2018-Apr-20 07:28N 29°37' W 095°01'0 0.0
2018-Apr-20 06:58N 29°37' W 095°01'0 0.0
2018-Apr-20 06:28N 29°37' W 095°01'0 0.0
2018-Apr-20 05:58N 29°37' W 095°01'0 0.0
2018-Apr-20 05:28N 29°37' W 095°01'0 0.0
2018-Apr-20 04:58N 29°37' W 095°01'0 0.0
2018-Apr-20 04:28N 29°37' W 095°01'0 0.0
2018-Apr-20 03:58N 29°37' W 095°01'0 0.0
2018-Apr-20 03:28N 29°37' W 095°01'0 0.0
2018-Apr-20 02:58N 29°37' W 095°01'0 0.0
2018-Apr-20 02:28N 29°37' W 095°01'0 0.0
2018-Apr-20 01:58N 29°37' W 095°01'0 0.0
2018-Apr-20 01:28N 29°37' W 095°01'0 0.0
2018-Apr-20 00:58N 29°37' W 095°01'0 0.1
2018-Apr-20 00:28N 29°37' W 095°01'0 0.1
2018-Apr-19 23:58N 29°37' W 095°01'0 0.0
2018-Apr-19 23:28N 29°37' W 095°01'0 0.4
2018-Apr-19 23:00N 29°37' W 095°01'0 0.6
2018-Apr-19 22:31N 29°37' W 095°01'3 5.1
2018-Apr-19 22:01N 29°37' W 094°58'3 5.7
2018-Apr-19 21:31N 29°35' W 094°56'611.7
2018-Apr-19 21:00N 29°30' W 094°52'611.9
2018-Apr-19 20:31N 29°24' W 094°49'510.0
2018-Apr-19 20:00N 29°21' W 094°46'510.7
2018-Apr-19 19:30N 29°20' W 094°40'  
2018-Apr-17 00:15N 09°37' W 079°57'519.5
2018-Apr-17 00:00N 09°32' W 079°56'816.0
2018-Apr-16 23:30N 09°24' W 079°55'4 8.6
2018-Apr-16 23:00N 09°20' W 079°55'2 4.9
2018-Apr-16 22:30N 09°17' W 079°55'1 1.5
2018-Apr-16 21:59N 09°16' W 079°55'0 0.3
2018-Apr-16 21:30N 09°16' W 079°55'0 0.2
2018-Apr-16 21:00N 09°16' W 079°55'0 0.5
2018-Apr-16 20:30N 09°16' W 079°55'0 0.4
2018-Apr-16 20:00N 09°16' W 079°55'1 1.0
2018-Apr-16 19:30N 09°15' W 079°55'0 0.2
2018-Apr-16 19:00N 09°15' W 079°55'0 0.1
2018-Apr-16 18:31N 09°15' W 079°55'1 2.0
2018-Apr-16 18:00N 09°14' W 079°55'2 4.5
2018-Apr-16 17:30N 09°12' W 079°55'  
Track history (hours):
 
Tides and Currents Weather Stations Pressure Air Temp Water Temp Dewpoint Dewpoint Depression Visibility Wind Speed Wind Dir Waves Ship Positions

APL Norway

Last reported at 2018-Apr-26 13:56 UTC. Time now 2018-Apr-26 22:54 UTC.
Position N 27°11' W 079°47'.

Length 295 m; draft 12 m.

Type: Cargo ship. MMSI: 636013456.

Date/timePositionNaut miles runAvg speedWind from/ knotsBaromVisibWave heightAir tempDewpointWater temp
2018-Apr-26 13:56N 27°11' W 079°47'612.7
2018-Apr-26 13:30N 27°05' W 079°48'612.8
2018-Apr-26 13:00N 26°59' W 079°48'613.0
2018-Apr-26 12:30N 26°52' W 079°48'613.0
2018-Apr-26 12:00N 26°46' W 079°48'712.9
2018-Apr-26 11:30N 26°39' W 079°48'713.0
2018-Apr-26 10:58N 26°33' W 079°48'1213.0
2018-Apr-26 10:03N 26°21' W 079°48'1310.9
2018-Apr-26 08:53N 26°09' W 079°53'711.6
2018-Apr-26 08:15N 26°02' W 079°55'312.1
2018-Apr-26 08:00N 25°59' W 079°57'612.1
2018-Apr-26 07:30N 25°54' W 079°60'712.8
2018-Apr-26 07:00N 25°48' W 080°02'5 9.5
2018-Apr-26 06:30N 25°45' W 080°07'2 0.2
2018-Apr-25 20:29N 25°46' W 080°09'0 0.0
2018-Apr-25 19:59N 25°46' W 080°09'0 0.0
2018-Apr-25 19:29N 25°46' W 080°09'0 0.0
2018-Apr-25 18:59N 25°46' W 080°09'0 0.0
2018-Apr-25 18:29N 25°46' W 080°09'0 0.0
2018-Apr-25 17:59N 25°46' W 080°09'0 0.0
2018-Apr-25 17:20N 25°46' W 080°09'0 0.0
2018-Apr-25 16:50N 25°46' W 080°09'0 0.0
2018-Apr-25 16:20N 25°46' W 080°09'0 0.0
2018-Apr-25 15:53N 25°46' W 080°09'0 0.0
2018-Apr-25 15:23N 25°46' W 080°09'0 0.0
2018-Apr-25 14:53N 25°46' W 080°09'0 0.0
2018-Apr-25 14:20N 25°46' W 080°09'0 0.0
2018-Apr-25 13:53N 25°46' W 080°09'0 0.0
2018-Apr-25 13:23N 25°46' W 080°09'0 0.0
2018-Apr-25 12:56N 25°46' W 080°09'0 0.0
2018-Apr-25 12:26N 25°46' W 080°09'0 0.0
2018-Apr-25 11:59N 25°46' W 080°09'0 0.0
2018-Apr-25 11:30N 25°46' W 080°09'1 1.7
2018-Apr-25 11:01N 25°46' W 080°10'2 4.5
2018-Apr-25 10:30N 25°46' W 080°08'5 9.8
2018-Apr-25 10:00N 25°47' W 080°02'2 3.8
2018-Apr-25 09:30N 25°46' W 080°01'611.8
2018-Apr-25 09:00N 25°40' W 079°58'815.0
2018-Apr-25 08:30N 25°33' W 079°58'815.3
2018-Apr-25 08:00N 25°25' W 079°59'815.4
2018-Apr-25 07:30N 25°18' W 080°00'  
2018-Apr-21 19:54N 28°40' W 093°46'6317.0
2018-Apr-21 16:10N 29°21' W 094°42'210.3
2018-Apr-21 15:57N 29°21' W 094°44'7 9.1
2018-Apr-21 15:14N 29°25' W 094°50'310.0
2018-Apr-21 14:57N 29°28' W 094°51'510.5
2018-Apr-21 14:30N 29°32' W 094°54'510.1
2018-Apr-21 14:00N 29°36' W 094°57'2 4.2
2018-Apr-21 13:30N 29°37' W 094°59'1 2.5
2018-Apr-21 12:59N 29°37' W 095°01'0 0.0
2018-Apr-21 12:29N 29°37' W 095°01'0 0.0
2018-Apr-21 11:59N 29°37' W 095°01'0 0.0
2018-Apr-21 11:29N 29°37' W 095°01'0 0.0
2018-Apr-21 10:59N 29°37' W 095°01'0 0.0
2018-Apr-21 10:29N 29°37' W 095°01'0 0.0
2018-Apr-21 09:59N 29°37' W 095°01'0 0.0
2018-Apr-21 09:29N 29°37' W 095°01'0 0.0
2018-Apr-21 08:59N 29°37' W 095°01'0 0.0
2018-Apr-21 08:29N 29°37' W 095°01'0 0.0
2018-Apr-21 07:59N 29°37' W 095°01'0 0.0
2018-Apr-21 07:29N 29°37' W 095°01'0 0.0
2018-Apr-21 06:59N 29°37' W 095°01'0 0.0
2018-Apr-21 06:29N 29°37' W 095°01'0 0.0
2018-Apr-21 05:59N 29°37' W 095°01'0 0.0
2018-Apr-21 05:29N 29°37' W 095°01'0 0.0
2018-Apr-21 04:59N 29°37' W 095°01'0 0.0
2018-Apr-21 04:29N 29°37' W 095°01'0 0.0
2018-Apr-21 03:59N 29°37' W 095°01'0 0.0
2018-Apr-21 03:29N 29°37' W 095°01'0 0.0
2018-Apr-21 02:58N 29°37' W 095°01'0 0.0
2018-Apr-21 02:28N 29°37' W 095°01'0 0.0
2018-Apr-21 01:58N 29°37' W 095°01'0 0.0
2018-Apr-21 01:28N 29°37' W 095°01'0 0.0
2018-Apr-21 00:58N 29°37' W 095°01'0 0.0
2018-Apr-21 00:28N 29°37' W 095°01'0 0.0
2018-Apr-20 23:58N 29°37' W 095°01'0 0.0
2018-Apr-20 23:28N 29°37' W 095°01'0 0.0
2018-Apr-20 22:58N 29°37' W 095°01'0 0.0
2018-Apr-20 22:28N 29°37' W 095°01'0 0.0
2018-Apr-20 21:58N 29°37' W 095°01'0 0.0
2018-Apr-20 21:28N 29°37' W 095°01'0 0.0
2018-Apr-20 20:58N 29°37' W 095°01'0 0.0
2018-Apr-20 20:28N 29°37' W 095°01'0 0.0
2018-Apr-20 19:58N 29°37' W 095°01'0 0.0
2018-Apr-20 19:28N 29°37' W 095°01'0 0.0
2018-Apr-20 18:58N 29°37' W 095°01'0 0.0
2018-Apr-20 18:28N 29°37' W 095°01'0 0.0
2018-Apr-20 17:58N 29°37' W 095°01'0 0.0
2018-Apr-20 17:28N 29°37' W 095°01'0 0.0
2018-Apr-20 16:58N 29°37' W 095°01'0 0.0
2018-Apr-20 16:28N 29°37' W 095°01'0 0.0
2018-Apr-20 15:58N 29°37' W 095°01'0 0.0
2018-Apr-20 15:28N 29°37' W 095°01'0 0.0
2018-Apr-20 14:58N 29°37' W 095°01'0 0.0
2018-Apr-20 14:28N 29°37' W 095°01'0 0.0
2018-Apr-20 13:58N 29°37' W 095°01'0 0.0
2018-Apr-20 13:28N 29°37' W 095°01'0 0.0
2018-Apr-20 12:58N 29°37' W 095°01'0 0.0
2018-Apr-20 12:28N 29°37' W 095°01'0 0.0
2018-Apr-20 11:58N 29°37' W 095°01'0 0.0
2018-Apr-20 11:28N 29°37' W 095°01'0 0.0
2018-Apr-20 10:58N 29°37' W 095°01'0 0.0
2018-Apr-20 10:28N 29°37' W 095°01'0 0.0
2018-Apr-20 09:58N 29°37' W 095°01'0 0.0
2018-Apr-20 09:28N 29°37' W 095°01'0 0.0
2018-Apr-20 08:58N 29°37' W 095°01'0 0.0
2018-Apr-20 08:28N 29°37' W 095°01'0 0.0
2018-Apr-20 07:58N 29°37' W 095°01'0 0.0
2018-Apr-20 07:28N 29°37' W 095°01'0 0.0
2018-Apr-20 06:58N 29°37' W 095°01'0 0.0
2018-Apr-20 06:28N 29°37' W 095°01'0 0.0
2018-Apr-20 05:58N 29°37' W 095°01'0 0.0
2018-Apr-20 05:28N 29°37' W 095°01'0 0.0
2018-Apr-20 04:58N 29°37' W 095°01'0 0.0
2018-Apr-20 04:28N 29°37' W 095°01'0 0.0
2018-Apr-20 03:58N 29°37' W 095°01'0 0.0
2018-Apr-20 03:28N 29°37' W 095°01'0 0.0
2018-Apr-20 02:58N 29°37' W 095°01'0 0.0
2018-Apr-20 02:28N 29°37' W 095°01'0 0.0
2018-Apr-20 01:58N 29°37' W 095°01'0 0.0
2018-Apr-20 01:28N 29°37' W 095°01'0 0.0
2018-Apr-20 00:58N 29°37' W 095°01'0 0.1
2018-Apr-20 00:28N 29°37' W 095°01'0 0.1
2018-Apr-19 23:58N 29°37' W 095°01'0 0.0
2018-Apr-19 23:28N 29°37' W 095°01'0 0.4
2018-Apr-19 23:00N 29°37' W 095°01'0 0.6
2018-Apr-19 22:31N 29°37' W 095°01'3 5.1
2018-Apr-19 22:01N 29°37' W 094°58'3 5.7
2018-Apr-19 21:31N 29°35' W 094°56'611.7
2018-Apr-19 21:00N 29°30' W 094°52'611.9
2018-Apr-19 20:31N 29°24' W 094°49'510.0
2018-Apr-19 20:00N 29°21' W 094°46'510.7
2018-Apr-19 19:30N 29°20' W 094°40'  
2018-Apr-17 00:15N 09°37' W 079°57'519.5
2018-Apr-17 00:00N 09°32' W 079°56'816.0
2018-Apr-16 23:30N 09°24' W 079°55'4 8.6
2018-Apr-16 23:00N 09°20' W 079°55'2 4.9
2018-Apr-16 22:30N 09°17' W 079°55'1 1.5
2018-Apr-16 21:59N 09°16' W 079°55'0 0.3
2018-Apr-16 21:30N 09°16' W 079°55'0 0.2
2018-Apr-16 21:00N 09°16' W 079°55'0 0.5
2018-Apr-16 20:30N 09°16' W 079°55'0 0.4
2018-Apr-16 20:00N 09°16' W 079°55'1 1.0
2018-Apr-16 19:30N 09°15' W 079°55'0 0.2
2018-Apr-16 19:00N 09°15' W 079°55'0 0.1
2018-Apr-16 18:31N 09°15' W 079°55'1 2.0
2018-Apr-16 18:00N 09°14' W 079°55'2 4.5
2018-Apr-16 17:30N 09°12' W 079°55'  

Dump ship's entire track history